• Join FlightAware (Why Join?)
  • Login
  • US Flag 
03:24AM EDT


 

Airport Tracker/Info


-or-


 

Live Flight TrackerFlight Track Log ✈ AAL1431 ✈ 04-Jul-2013 ✈ KDFW - KSEA

Flight Track Log - Related Links

Times and Time Zones

All times are in EDT time to prevent confusion due to time zone crossing. See the AAL1431 flight status page for this flight to view local times or setup timezone preferences in your user account.

Time Position Orientation Groundspeed Altitude Reporting Facility
EDT Latitude Longitude Course Direction KTS MPH feet Rate Location/Type
11:52PM 32.8720 -97.0520 184° South 165 190 1,800  Level FlightAware
11:53PM 32.8480 -97.0550 186° South 195 224 2,300 1,320 Climbing FlightAware
11:53PM 32.8010 -97.0720 197° South 239 275 3,500 1,560 Climbing FlightAware
11:54PM 32.7750 -97.0950 217° Southwest 263 303 4,300 1,920 Climbing FlightAware
11:54PM 32.7700 -97.1110 250° West 268 308 4,800 2,580 Climbing FlightAware
11:55PM 32.7800 -97.1540 285° West 272 313 6,100 2,340 Climbing FlightAware
11:55PM 32.7950 -97.1890 297° West 282 325 7,000 2,340 Climbing FlightAware
11:55PM 32.8050 -97.2120 297° West 279 321 7,800 2,880 Climbing FlightAware
11:56PM 32.8210 -97.2510 296° West 278 320 9,200 2,640 Climbing FlightAware
11:56PM 32.8430 -97.3070 295° West 287 330 10,800 1,620 Climbing FlightAware
11:57PM 32.8710 -97.3800 295° West 346 398 11,500 1,620 Climbing FlightAware
11:58PM 32.9010 -97.4480 298° West 357 411 13,100 2,520 Climbing FlightAware
11:58PM 32.9380 -97.5010 310° West 363 418 14,700 2,580 Climbing FlightAware
11:59PM 32.9870 -97.5730 309° West 375 432 16,600 2,400 Climbing FlightAware
12:00AM 33.0310 -97.6380 309° West 386 444 18,100 2,520 Climbing FlightAware
12:01AM 33.0780 -97.7130 307° West 386 444 20,200 2,520 Climbing FlightAware
12:01AM 33.1150 -97.8080 295° West 399 459 22,000 1,980 Climbing FlightAware
12:02AM 33.1400 -97.8790 293° West 408 470 23,000 1,740 Climbing FlightAware
12:03AM 33.1790 -97.9540 302° West 414 476 24,200 1,320 Climbing FlightAware
12:04AM 33.2310 -98.0530 302° West 417 480 25,100 1,800 Climbing FlightAware
12:04AM 33.2730 -98.1330 302° West 422 486 27,000 2,100 Climbing FlightAware
12:05AM 33.3270 -98.2360 302° West 430 495 28,200 1,440 Climbing FlightAware
12:06AM 33.3640 -98.3080 302° West 435 501 29,100 1,500 Climbing FlightAware
12:06AM 33.4110 -98.3980 302° West 435 501 30,200 1,440 Climbing FlightAware
12:07AM 33.4520 -98.4760 302° West 437 503 31,100 600 Climbing FlightAware
12:08AM 33.4910 -98.5550 301° West 437 503 31,100  Level FlightAware
12:08AM 33.5240 -98.6200 301° West 437 503 31,100  Level FlightAware
12:09AM 33.5560 -98.6840 301° West 437 503 31,100  Level FlightAware
12:10AM 33.5880 -98.7470 301° West 437 503 31,100  Level FlightAware
12:10AM 33.6300 -98.8320 301° West 437 503 31,100  Level FlightAware
12:11AM 33.6630 -98.8980 301° West 437 503 31,100  Level FlightAware
12:12AM 33.7060 -98.9830 301° West 437 503 31,100  Level FlightAware
12:12AM 33.7380 -99.0480 301° West 437 503 31,100  Level FlightAware
12:13AM 33.7810 -99.1330 301° West 437 503 31,100  Level FlightAware
12:14AM 33.8110 -99.1930 301° West 437 503 31,100  Level FlightAware
12:14AM 33.8430 -99.2570 301° West 437 503 31,100  Level FlightAware
12:15AM 33.8980 -99.3690 301° West 437 503 31,100  Level FlightAware
12:16AM 33.9410 -99.4540 301° West 437 503 31,100  Level FlightAware
12:17AM 33.9730 -99.5180 301° West 437 503 31,100 2,580 Level FlightAware
12:19AM 34.1690 -99.8850 303° West 417 480 38,000 2,340 Climbing FlightAware
12:20AM 34.2120 -99.9740 300° West 417 480 38,000  Level FlightAware
12:20AM 34.2410 -100.0360 300° West 417 480 38,000  Level FlightAware
12:21AM 34.3000 -100.1490 302° West 418 481 38,000  Level FlightAware
12:22AM 34.3420 -100.2360 300° West 418 481 38,000  Level FlightAware
12:22AM 34.3720 -100.2980 300° West 418 481 38,000  Level FlightAware
12:23AM 34.4110 -100.3810 300° West 418 481 38,000  Level FlightAware
12:24AM 34.4410 -100.4450 300° West 418 481 38,000  Level FlightAware
12:24AM 34.4710 -100.5070 300° West 418 481 38,000  Level FlightAware
12:25AM 34.5010 -100.5690 300° West 418 481 38,000  Level FlightAware
12:26AM 34.5410 -100.6540 300° West 418 481 38,000  Level FlightAware
12:26AM 34.5710 -100.7180 300° West 418 481 38,000  Level FlightAware
12:27AM 34.6010 -100.7800 300° West 418 481 38,000  Level FlightAware
12:28AM 34.6400 -100.8630 300° West 418 481 38,000  Level FlightAware
12:28AM 34.6710 -100.9270 301° West 418 481 38,000  Level FlightAware
12:29AM 34.7020 -100.9930 300° West 418 481 38,000  Level FlightAware
12:30AM 34.7320 -101.0570 300° West 418 481 38,000  Level FlightAware
12:30AM 34.7720 -101.1400 300° West 418 481 38,000 -7,800 Level FlightAware
12:31AM 33.2260 -98.0430 120° Southeast 423 487 26,700 -8,940 Descending FlightAware
12:32AM 33.2590 -98.1050 302° West 423 487 26,700  Level FlightAware
12:33AM 33.3010 -98.1860 302° West 423 487 26,700  Level FlightAware
12:33AM 33.3330 -98.2470 302° West 423 487 26,700  Level FlightAware
12:34AM 33.3670 -98.3130 302° West 423 487 26,700  Level FlightAware
12:35AM 33.4100 -98.3960 302° West 423 487 26,700 3,180 Level FlightAware
12:37AM 35.4244 -102.0353 302° West 427 491 38,000 3,000 Climbing Albuquerque Center
12:38AM 35.4933 -102.1561 305° West 431 496 38,000  Level Albuquerque Center
12:39AM 35.5603 -102.2764 304° West 430 495 38,000  Level Albuquerque Center
12:40AM 35.6275 -102.3975 304° West 428 493 38,000  Level Albuquerque Center
12:41AM 35.6961 -102.5161 305° West 428 493 38,000  Level Albuquerque Center
12:42AM 35.7619 -102.6369 304° West 426 490 38,000  Level Albuquerque Center
12:43AM 35.8281 -102.7575 304° West 426 490 38,000  Level Albuquerque Center
12:44AM 35.8942 -102.8764 304° West 423 487 38,000  Level Albuquerque Center
12:45AM 35.9544 -102.9886 304° West 422 486 38,000  Level Albuquerque Center
12:46AM 36.0208 -103.1089 304° West 422 486 38,000  Level Albuquerque Center
12:47AM 36.0867 -103.2292 304° West 422 486 38,000  Level Albuquerque Center
12:48AM 36.1519 -103.3506 304° West 421 484 38,000  Level Albuquerque Center
12:49AM 36.2172 -103.4725 304° West 423 487 38,000  Level Albuquerque Center
12:50AM 36.2822 -103.5931 304° West 420 483 38,000  Level Albuquerque Center
12:51AM 36.3469 -103.7128 304° West 418 481 38,000  Level Albuquerque Center
12:52AM 36.4114 -103.8358 303° West 420 483 38,000  Level Albuquerque Center
12:53AM 36.4761 -103.9569 304° West 420 483 38,000  Level Albuquerque Center
12:54AM 36.5394 -104.0767 303° West 416 479 38,000  Level Albuquerque Center
12:55AM 36.6019 -104.1989 303° West 416 479 38,000  Level Albuquerque Center
12:56AM 36.6650 -104.3225 302° West 418 481 38,000  Level Albuquerque Center
01:02AM 37.0412 -105.0670 302° West 423 487 38,000  Level FlightAware ADS-B
01:03AM 37.1078 -105.2020 302° West 426 490 38,000  Level FlightAware ADS-B
01:04AM 37.1391 -105.2650 302° West 428 493 38,000  Level FlightAware ADS-B
01:04AM 37.1707 -105.3280 302° West 429 494 38,000  Level FlightAware ADS-B
01:05AM 37.2039 -105.3950 302° West 429 494 38,000  Level FlightAware ADS-B
01:06AM 37.2657 -105.5210 302° West 429 494 38,000  Level FlightAware ADS-B
01:06AM 37.2984 -105.5870 302° West 429 494 38,000  Level FlightAware ADS-B
01:07AM 37.3366 -105.6650 302° West 429 494 38,000  Level FlightAware ADS-B
01:08AM 37.3700 -105.7330 302° West 430 495 38,000  Level FlightAware ADS-B
01:08AM 37.4019 -105.7980 302° West 432 497 38,000  Level FlightAware ADS-B
01:09AM 37.4335 -105.8630 301° West 433 498 38,000  Level FlightAware ADS-B
01:09AM 37.4651 -105.9280 302° West 433 498 38,000  Level FlightAware ADS-B
01:10AM 37.4968 -105.9930 302° West 434 499 38,000  Level FlightAware ADS-B
01:10AM 37.5351 -106.0690 302° West 433 498 38,000  Level FlightAware ADS-B
01:11AM 37.5689 -106.1340 303° West 433 498 38,000  Level FlightAware ADS-B
01:11AM 37.6023 -106.1990 303° West 434 499 38,000  Level FlightAware ADS-B
01:12AM 37.6355 -106.2630 303° West 434 499 38,000  Level FlightAware ADS-B
01:12AM 37.6730 -106.3370 303° West 435 501 38,000  Level FlightAware ADS-B
01:13AM 37.7056 -106.4010 303° West 436 502 38,000  Level FlightAware ADS-B
01:13AM 37.7384 -106.4660 303° West 436 502 38,000  Level FlightAware ADS-B
01:14AM 37.7714 -106.5310 303° West 434 499 38,000  Level FlightAware ADS-B
01:14AM 37.8038 -106.5950 303° West 431 496 38,000  Level FlightAware ADS-B
01:15AM 37.8371 -106.6610 303° West 429 494 38,000  Level FlightAware ADS-B
01:15AM 37.8745 -106.7350 303° West 427 491 38,000  Level FlightAware ADS-B
01:16AM 37.9064 -106.7980 303° West 425 489 38,000  Level FlightAware ADS-B
01:17AM 37.9384 -106.8620 302° West 424 488 38,000  Level FlightAware ADS-B
01:17AM 37.9835 -106.9520 302° West 423 487 38,000  Level FlightAware ADS-B
01:18AM 38.0225 -107.0300 302° West 421 484 38,000  Level FlightAware ADS-B
01:18AM 38.0544 -107.0940 302° West 421 484 38,000  Level FlightAware ADS-B
01:19AM 38.0880 -107.1610 303° West 420 483 38,000  Level FlightAware ADS-B
01:20AM 38.1570 -107.3000 302° West 425 489 38,000  Level FlightAware
01:21AM 38.2000 -107.3880 302° West 424 488 38,000  Level FlightAware
01:21AM 38.2470 -107.4820 303° West 423 487 38,000  Level FlightAware
01:22AM 38.2880 -107.5660 302° West 420 483 38,000  Level FlightAware
01:23AM 38.3310 -107.6530 302° West 420 483 38,000  Level FlightAware
01:24AM 38.3750 -107.7420 302° West 421 484 38,000  Level FlightAware
01:24AM 38.4170 -107.8290 302° West 421 484 38,000  Level FlightAware
01:25AM 38.4620 -107.9220 302° West 419 482 38,000  Level FlightAware
01:26AM 38.5060 -108.0090 303° West 416 479 38,000  Level FlightAware
01:26AM 38.5540 -108.0860 309° West 417 480 38,000  Level FlightAware
01:27AM 38.6020 -108.1630 309° West 416 479 38,000  Level FlightAware
01:28AM 38.6540 -108.2470 308° West 416 479 38,000  Level FlightAware
01:28AM 38.7070 -108.3320 309° West 415 478 38,000  Level FlightAware
01:29AM 38.7570 -108.4120 309° West 417 480 38,000  Level FlightAware
01:30AM 38.8060 -108.4910 309° West 416 479 38,000  Level FlightAware
01:30AM 38.8430 -108.5520 308° West 418 481 38,000  Level FlightAware
01:31AM 38.8990 -108.6410 309° West 419 482 38,000  Level FlightAware
01:32AM 38.9520 -108.7280 308° West 420 483 38,000  Level FlightAware
01:32AM 38.9950 -108.7990 308° West 421 484 38,000  Level FlightAware
01:33AM 39.0430 -108.8770 308° West 421 484 38,000  Level FlightAware
01:34AM 39.0930 -108.9590 308° West 421 484 38,000  Level FlightAware
01:34AM 39.1320 -109.0220 309° West 421 484 38,000  Level FlightAware
01:35AM 39.1880 -109.1140 308° West 418 481 38,000  Level FlightAware
01:36AM 39.2350 -109.1930 308° West 417 480 38,000  Level FlightAware
01:37AM 39.2890 -109.2810 308° West 418 481 38,000  Level FlightAware
01:37AM 39.3350 -109.3590 307° West 417 480 38,000  Level FlightAware
01:38AM 39.3840 -109.4390 308° West 420 483 38,000  Level FlightAware
01:39AM 39.4340 -109.5220 308° West 422 486 38,000  Level FlightAware
01:39AM 39.4770 -109.5950 307° West 422 486 38,000  Level FlightAware
01:40AM 39.5220 -109.6710 308° West 424 488 38,000  Level FlightAware
01:41AM 39.5710 -109.7520 308° West 420 483 38,000  Level FlightAware
01:41AM 39.6170 -109.8310 307° West 420 483 38,000  Level FlightAware
01:42AM 39.6610 -109.9040 308° West 418 481 38,000  Level FlightAware
01:43AM 39.7150 -109.9970 307° West 414 476 38,000  Level FlightAware
01:43AM 39.7680 -110.0850 308° West 411 473 38,000  Level FlightAware
01:44AM 39.8130 -110.1620 307° West 411 473 38,000  Level FlightAware
01:45AM 39.8800 -110.2770 307° West 411 473 38,000  Level FlightAware
01:46AM 39.9260 -110.3550 308° West 414 476 38,000  Level FlightAware
01:46AM 39.9770 -110.4440 307° West 416 479 38,000  Level FlightAware
01:47AM 40.0240 -110.5240 308° West 417 480 38,000  Level FlightAware
01:48AM 40.0730 -110.6090 307° West 417 480 38,000  Level FlightAware
01:48AM 40.1099 -110.6730 307° West 418 481 38,000  Level FlightAware ADS-B
01:49AM 40.1551 -110.7510 307° West 419 482 38,000  Level FlightAware ADS-B
01:49AM 40.1978 -110.8250 307° West 422 486 38,000  Level FlightAware ADS-B
01:50AM 40.2577 -110.9300 307° West 425 489 38,000  Level FlightAware ADS-B
01:51AM 40.2936 -110.9920 307° West 425 489 38,000  Level FlightAware ADS-B
01:52AM 40.3827 -111.1480 307° West 423 487 38,000  Level FlightAware ADS-B
01:53AM 40.4174 -111.2100 306° West 421 484 38,000  Level FlightAware ADS-B
01:53AM 40.4527 -111.2720 307° West 420 483 38,000  Level FlightAware ADS-B
01:54AM 40.4889 -111.3360 307° West 420 483 38,000  Level FlightAware ADS-B
01:54AM 40.5239 -111.3980 307° West 419 482 38,000  Level FlightAware ADS-B
01:55AM 40.5588 -111.4600 307° West 419 482 38,000  Level FlightAware ADS-B
01:55AM 40.5937 -111.5220 307° West 418 481 38,000  Level FlightAware ADS-B
01:55AM 40.6145 -111.5590 307° West 417 480 38,000  Level FlightAware ADS-B
01:56AM 40.6211 -111.5690 311° West 420 483 38,000  Level FlightAware ADS-B
01:56AM 40.6270 -111.5760 318° Northwest 422 486 38,000  Level FlightAware ADS-B
01:56AM 40.6361 -111.5850 323° Northwest 425 489 38,000  Level FlightAware ADS-B
01:56AM 40.6502 -111.5950 332° Northwest 429 494 38,000  Level FlightAware ADS-B
01:56AM 40.6651 -111.6040 335° Northwest 434 499 38,000  Level FlightAware ADS-B
01:56AM 40.6750 -111.6080 343° North 435 501 38,000  Level FlightAware ADS-B
01:57AM 40.7370 -111.6270 347° North 438 504 38,000  Level FlightAware ADS-B
01:57AM 40.7975 -111.6450 347° North 442 509 38,000  Level FlightAware ADS-B
01:58AM 40.8579 -111.6620 348° North 445 512 38,000  Level FlightAware ADS-B
01:58AM 40.9187 -111.6790 348° North 446 513 38,000  Level FlightAware ADS-B
01:59AM 40.9793 -111.6960 348° North 445 512 38,000  Level FlightAware ADS-B
01:59AM 40.9982 -111.7010 349° North 448 516 38,000  Level FlightAware ADS-B
01:59AM 41.0285 -111.7050 354° North 450 518 38,000  Level FlightAware ADS-B
01:59AM 41.0807 -111.7090 357° North 450 518 38,000  Level FlightAware ADS-B
02:00AM 41.1308 -111.7120 357° North 451 519 38,000  Level FlightAware ADS-B
02:00AM 41.1696 -111.7120 360° North 452 520 38,000  Level FlightAware ADS-B
02:01AM 41.2328 -111.7110 North 451 519 38,000  Level FlightAware ADS-B
02:01AM 41.2962 -111.7100 North 449 517 38,000  Level FlightAware ADS-B
02:01AM 41.3380 -111.7100 360° North 448 516 38,000  Level FlightAware ADS-B
02:02AM 41.4004 -111.7100 360° North 449 517 38,000  Level FlightAware ADS-B
02:02AM 41.4630 -111.7100 360° North 450 518 38,000  Level FlightAware ADS-B
02:03AM 41.5304 -111.7100 360° North 450 518 38,000  Level FlightAware ADS-B
02:04AM 41.6091 -111.7090 North 451 519 38,000  Level FlightAware ADS-B
02:04AM 41.6457 -111.7090 360° North 449 517 38,000  Level FlightAware ADS-B
02:04AM 41.7084 -111.7090 360° North 449 517 38,000  Level FlightAware ADS-B
02:05AM 41.8074 -111.7160 357° North 447 514 38,000  Level FlightAware ADS-B
02:06AM 41.8779 -111.7290 352° North 443 510 38,000  Level FlightAware ADS-B
02:06AM 41.9230 -111.7400 350° North 436 502 38,000  Level FlightAware ADS-B
02:06AM 41.9457 -111.7510 340° North 428 493 38,000  Level FlightAware ADS-B
02:07AM 42.0005 -111.7980 327° Northwest 420 483 38,000  Level FlightAware ADS-B
02:07AM 42.0221 -111.8250 317° Northwest 415 478 38,000  Level FlightAware ADS-B
02:08AM 42.0626 -111.8890 310° West 414 476 38,000  Level FlightAware ADS-B
02:08AM 42.0975 -111.9510 307° West 411 473 38,000  Level FlightAware ADS-B
02:09AM 42.1620 -112.0600 309° West 413 475 38,000  Level FlightAware
02:09AM 42.1707 -112.0740 310° West 412 474 38,000  Level FlightAware ADS-B
02:10AM 42.2030 -112.1280 309° West 413 475 38,000  Level FlightAware
02:10AM 42.2298 -112.1720 309° West 414 476 38,000  Level FlightAware ADS-B
02:11AM 42.2892 -112.2700 309° West 414 476 38,000  Level FlightAware ADS-B
02:11AM 42.3297 -112.3380 309° West 419 482 38,000  Level FlightAware ADS-B
02:12AM 42.3670 -112.3990 310° West 423 487 38,000  Level FlightAware
02:13AM 42.4130 -112.4780 308° West 424 488 38,000  Level FlightAware
02:14AM 42.4970 -112.6190 309° West 426 490 38,000  Level FlightAware
02:15AM 42.5700 -112.7430 309° West 426 490 38,000  Level FlightAware
02:15AM 42.6070 -112.8080 308° West 426 490 38,000  Level FlightAware
02:16AM 42.6470 -112.8780 308° West 426 490 38,000  Level FlightAware
02:17AM 42.6840 -112.9430 308° West 426 490 38,000  Level FlightAware
02:18AM 42.7340 -113.0290 308° West 426 490 38,000  Level FlightAware
02:18AM 42.8110 -113.1510 311° West 413 475 38,000  Level FlightAware
02:19AM 42.8470 -113.2140 308° West 413 475 38,000  Level FlightAware
02:20AM 42.8950 -113.2980 308° West 413 475 38,000  Level FlightAware
02:20AM 42.9252 -113.3480 310° West 412 474 38,000  Level FlightAware ADS-B
02:20AM 42.9635 -113.4150 308° West 411 473 38,000  Level FlightAware ADS-B
02:22AM 43.0514 -113.5667 308° West 412 474 38,000  Level Salt Lake Center
02:23AM 43.1197 -113.6869 308° West 418 481 38,000  Level Salt Lake Center
02:24AM 43.1878 -113.8058 308° West 415 478 38,000  Level Salt Lake Center
02:26AM 43.3342 -114.0656 308° West 420 483 38,000  Level Salt Lake Center
02:27AM 43.4025 -114.1869 308° West 419 482 38,000  Level Salt Lake Center
02:28AM 43.4833 -114.3297 308° West 422 486 38,000  Level Salt Lake Center
02:29AM 43.5517 -114.4519 308° West 422 486 38,000  Level Salt Lake Center
02:30AM 43.6192 -114.5725 308° West 416 479 38,000  Level Salt Lake Center
02:31AM 43.6858 -114.6939 307° West 415 478 38,000  Level Salt Lake Center
02:32AM 43.7639 -114.8356 307° West 415 478 38,000  Level Salt Lake Center
02:33AM 43.8317 -114.9567 308° West 416 479 38,000  Level Salt Lake Center
02:34AM 43.8989 -115.0789 307° West 419 482 38,000  Level Salt Lake Center
02:35AM 43.9767 -115.2239 307° West 420 483 38,000  Level Salt Lake Center
02:36AM 44.0458 -115.3489 308° West 425 489 38,000  Level Salt Lake Center
02:37AM 44.1131 -115.4747 307° West 424 488 38,000  Level Salt Lake Center
02:38AM 44.1819 -115.6031 307° West 430 495 38,000  Level Salt Lake Center
02:39AM 44.2614 -115.7517 307° West 429 494 38,000  Level Salt Lake Center
02:40AM 44.3306 -115.8803 307° West 432 497 38,000  Level Salt Lake Center
02:41AM 44.3969 -116.0047 307° West 424 488 38,000  Level Salt Lake Center
02:42AM 44.4717 -116.1472 306° West 429 494 38,000  Level Salt Lake Center
02:43AM 44.5406 -116.2803 306° West 436 502 38,000  Level Salt Lake Center
02:44AM 44.6175 -116.4281 306° West 426 490 38,000  Level Salt Lake Center
02:45AM 44.6847 -116.5556 307° West 426 490 38,000  Level Salt Lake Center
02:46AM 44.7517 -116.6847 306° West 426 490 38,000  Level Salt Lake Center
02:47AM 44.8300 -116.8375 306° West 430 495 38,000  Level Salt Lake Center
02:48AM 44.8969 -116.9669 306° West 430 495 38,000  Level Salt Lake Center
02:49AM 44.9642 -117.0994 306° West 432 497 38,000  Level Salt Lake Center
02:50AM 45.0311 -117.2314 306° West 432 497 38,000  Level Salt Lake Center
02:51AM 45.1081 -117.3850 305° West 430 495 38,000  Level Salt Lake Center
02:52AM 45.1756 -117.5164 306° West 431 496 38,000  Level Salt Lake Center
02:53AM 45.2417 -117.6492 305° West 430 495 38,000  Level Salt Lake Center
02:54AM 45.3072 -117.7814 305° West 427 491 38,000  Level Salt Lake Center
02:59AM 45.6670 -118.5040 305° West 421 484 38,000  Level FlightAware
03:00AM 45.7370 -118.6450 305° West 420 483 38,000  Level FlightAware
03:01AM 45.7860 -118.7470 305° West 420 483 38,000  Level FlightAware
03:01AM 45.8240 -118.8250 305° West 420 483 38,000  Level FlightAware
03:02AM 45.8540 -118.8870 305° West 418 481 38,000  Level FlightAware
03:02AM 45.8980 -118.9780 305° West 418 481 38,000  Level FlightAware
03:03AM 45.9420 -119.0680 305° West 423 487 38,000  Level FlightAware
03:04AM 45.9880 -119.1620 305° West 425 489 38,000  Level FlightAware
03:04AM 46.0340 -119.2580 305° West 425 489 38,000  Level FlightAware
03:05AM 46.0770 -119.3480 305° West 424 488 38,000  Level FlightAware
03:06AM 46.1270 -119.4540 304° West 423 487 38,000  Level FlightAware
03:06AM 46.1740 -119.5530 304° West 422 486 38,000  Level FlightAware
03:07AM 46.2190 -119.6470 305° West 421 484 38,000  Level FlightAware
03:08AM 46.2690 -119.7520 305° West 420 483 38,000  Level FlightAware
03:08AM 46.3055 -119.8310 304° West 419 482 38,000  Level FlightAware ADS-B
03:09AM 46.3530 -119.9320 304° West 418 481 38,000  Level FlightAware
03:10AM 46.4030 -120.0380 304° West 419 482 38,000  Level FlightAware
03:11AM 46.4730 -120.1880 304° West 422 486 38,000  Level FlightAware
03:12AM 46.5160 -120.2820 304° West 423 487 38,000 -180 Level FlightAware
03:12AM 46.5496 -120.3550 304° West 422 486 37,800 -600 Descending FlightAware ADS-B
03:13AM 46.5823 -120.4250 304° West 417 480 37,400 -900 Descending FlightAware ADS-B
03:13AM 46.6150 -120.4970 303° West 421 484 36,900 -1,020 Descending FlightAware ADS-B
03:14AM 46.6474 -120.5680 304° West 424 488 36,400 -1,020 Descending FlightAware ADS-B
03:14AM 46.6817 -120.6430 304° West 425 489 35,900 -1,380 Descending FlightAware ADS-B
03:15AM 46.7188 -120.7240 304° West 421 484 34,900 -2,340 Descending FlightAware ADS-B
03:15AM 46.7516 -120.7950 304° West 424 488 33,400 -3,060 Descending FlightAware ADS-B
03:16AM 46.7847 -120.8680 304° West 426 490 31,800 -3,060 Descending FlightAware ADS-B
03:16AM 46.8172 -120.9400 303° West 427 491 30,300 -2,820 Descending FlightAware ADS-B
03:17AM 46.8499 -121.0130 303° West 422 486 29,000 -2,400 Descending FlightAware ADS-B
03:17AM 46.8816 -121.0840 303° West 415 478 27,900 -2,400 Descending FlightAware ADS-B
03:18AM 46.9134 -121.1550 303° West 408 470 26,600 -2,400 Descending FlightAware ADS-B
03:18AM 46.9443 -121.2240 303° West 400 460 25,500 -2,340 Descending FlightAware ADS-B
03:19AM 46.9743 -121.2910 303° West 392 451 24,300 -2,340 Descending FlightAware ADS-B
03:19AM 47.0037 -121.3570 303° West 384 442 23,200 -2,100 Descending FlightAware ADS-B
03:20AM 47.0325 -121.4220 303° West 376 433 22,200 -1,740 Descending FlightAware ADS-B
03:20AM 47.0607 -121.4850 303° West 361 415 21,500 -1,320 Descending FlightAware ADS-B
03:21AM 47.0873 -121.5440 304° West 342 394 20,900 -1,500 Descending FlightAware ADS-B
03:21AM 47.1144 -121.6030 304° West 348 400 20,000 -1,800 Descending FlightAware ADS-B
03:22AM 47.1420 -121.6630 304° West 351 404 19,100 -1,860 Descending FlightAware ADS-B
03:22AM 47.1653 -121.7140 304° West 347 399 18,300 -1,920 Descending FlightAware ADS-B
03:22AM 47.1721 -121.7270 308° West 347 399 18,100 -1,500 Descending FlightAware ADS-B
03:22AM 47.1773 -121.7350 314° West 347 399 18,000 -1,500 Descending FlightAware ADS-B
03:23AM 47.1847 -121.7450 317° Northwest 348 400 17,800 -1,860 Descending FlightAware ADS-B
03:23AM 47.1923 -121.7540 321° Northwest 349 402 17,600 -1,860 Descending FlightAware ADS-B
03:23AM 47.2021 -121.7630 328° Northwest 350 403 17,400 -1,980 Descending FlightAware ADS-B
03:23AM 47.2448 -121.7970 332° Northwest 345 397 16,400 -1,920 Descending FlightAware ADS-B
03:24AM 47.2870 -121.8300 332° Northwest 340 391 15,500 -1,740 Descending FlightAware ADS-B
03:24AM 47.3278 -121.8620 332° Northwest 330 380 14,700 -1,800 Descending FlightAware ADS-B
03:25AM 47.3681 -121.8960 330° Northwest 329 379 13,700 -1,920 Descending FlightAware ADS-B
03:25AM 47.4028 -121.9250 331° Northwest 324 373 12,900 -1,740 Descending FlightAware ADS-B
03:26AM 47.4419 -121.9580 330° Northwest 319 367 12,100 -1,620 Descending FlightAware ADS-B
03:26AM 47.4801 -121.9910 330° Northwest 310 357 11,300 -1,620 Descending FlightAware ADS-B
03:27AM 47.5172 -122.0230 330° Northwest 305 351 10,500 -1,320 Descending FlightAware ADS-B
03:27AM 47.5526 -122.0540 329° Northwest 286 329 10,000 -1,080 Descending FlightAware ADS-B
03:28AM 47.5697 -122.0680 331° Northwest 279 321 9,700 -1,320 Descending FlightAware ADS-B
03:28AM 47.5838 -122.0810 328° Northwest 274 315 9,400 -1,500 Descending FlightAware ADS-B
03:28AM 47.6004 -122.0960 329° Northwest 271 312 9,000 -1,560 Descending FlightAware ADS-B
03:28AM 47.6162 -122.1100 329° Northwest 270 311 8,600 -2,040 Descending FlightAware ADS-B
03:29AM 47.6321 -122.1250 328° Northwest 269 310 8,000 -2,220 Descending FlightAware ADS-B
03:29AM 47.6478 -122.1400 327° Northwest 267 307 7,500 -2,040 Descending FlightAware ADS-B
03:29AM 47.6635 -122.1550 327° Northwest 266 306 7,000 -1,620 Descending FlightAware ADS-B
03:29AM 47.6783 -122.1680 329° Northwest 260 299 6,700 -1,200 Descending FlightAware ADS-B
03:29AM 47.6831 -122.1730 325° Northwest 257 296 6,600 -1,500 Descending FlightAware ADS-B
03:29AM 47.6866 -122.1770 322° Northwest 254 292 6,500 -2,040 Descending FlightAware ADS-B
03:29AM 47.6893 -122.1810 315° West 253 291 6,400 -1,740 Descending FlightAware ADS-B
03:30AM 47.6927 -122.1860 315° West 252 290 6,300 -780 Descending FlightAware ADS-B
03:30AM 47.6954 -122.1900 315° West 251 289 6,300 -780 Level FlightAware ADS-B
03:30AM 47.6981 -122.1950 309° West 249 287 6,200 -1,740 Descending FlightAware ADS-B
03:30AM 47.7002 -122.1990 308° West 249 287 6,100 -2,040 Descending FlightAware ADS-B
03:30AM 47.7020 -122.2040 298° West 249 287 6,000 -1,740 Descending FlightAware ADS-B
03:30AM 47.7043 -122.2100 300° West 249 287 5,900 -1,740 Descending FlightAware ADS-B
03:30AM 47.7063 -122.2160 296° West 249 287 5,800 -1,740 Descending FlightAware ADS-B
03:30AM 47.7076 -122.2210 291° West 250 288 5,700 -2,280 Descending FlightAware ADS-B
03:30AM 47.7091 -122.2270 290° West 250 288 5,500 -2,040 Descending FlightAware ADS-B
03:30AM 47.7106 -122.2360 284° West 252 290 5,400 -2,280 Descending FlightAware ADS-B
03:30AM 47.7114 -122.2420 281° West 253 291 5,200 -2,280 Descending FlightAware ADS-B
03:30AM 47.7122 -122.2490 280° West 253 291 5,100 -1,500 Descending FlightAware ADS-B
03:30AM 47.7123 -122.2550 271° West 254 292 5,000 -2,040 Descending FlightAware ADS-B
03:30AM 47.7121 -122.2610 267° West 254 292 4,900 -1,500 Descending FlightAware ADS-B
03:30AM 47.7112 -122.2680 259° West 255 293 4,800 -2,280 Descending FlightAware ADS-B
03:30AM 47.7099 -122.2740 252° West 255 293 4,600 -3,000 Descending FlightAware ADS-B
03:31AM 47.7086 -122.2790 249° West 254 292 4,500 -1,500 Descending FlightAware ADS-B
03:31AM 47.7057 -122.2860 238° Southwest 256 295 4,400 -1,500 Descending FlightAware ADS-B
03:31AM 47.7035 -122.2910 237° Southwest 256 295 4,300 -1,740 Descending FlightAware ADS-B
03:31AM 47.7010 -122.2950 227° Southwest 256 295 4,200 -1,740 Descending FlightAware ADS-B
03:31AM 47.6976 -122.2990 218° Southwest 254 292 4,100 -1,740 Descending FlightAware ADS-B
03:31AM 47.6942 -122.3030 218° Southwest 252 290 4,000 -780 Descending FlightAware ADS-B
03:31AM 47.6902 -122.3050 199° South 250 288 4,000 -900 Level FlightAware ADS-B
03:31AM 47.6868 -122.3070 202° Southwest 248 285 3,900 -1,020 Descending FlightAware ADS-B
03:31AM 47.6827 -122.3090 198° South 244 281 3,900 -900 Level FlightAware ADS-B
03:31AM 47.6789 -122.3100 190° South 242 278 3,800 -780 Descending FlightAware ADS-B
03:31AM 47.6747 -122.3100 180° South 239 275 3,800 -780 Level FlightAware ADS-B
03:31AM 47.6698 -122.3110 188° South 237 273 3,700 -780 Descending FlightAware ADS-B
03:31AM 47.6652 -122.3110 180° South 234 269 3,700 -480 Level FlightAware ADS-B
03:31AM 47.6545 -122.3100 176° South 227 261 3,600 -600 Descending FlightAware ADS-B
03:32AM 47.6420 -122.3090 177° South 219 252 3,500 -300 Descending FlightAware ADS-B
03:32AM 47.6331 -122.3090 180° South 212 244 3,500 -600 Level FlightAware ADS-B
03:32AM 47.6228 -122.3090 180° South 204 235 3,300 -900 Descending FlightAware ADS-B
03:32AM 47.6144 -122.3100 185° South 201 231 3,200 -480 Descending FlightAware ADS-B
03:32AM 47.6005 -122.3100 180° South 196 226 3,100 -840 Descending FlightAware ADS-B
03:33AM 47.5869 -122.3100 180° South 199 229 2,800 -1,260 Descending FlightAware ADS-B
03:33AM 47.5776 -122.3100 180° South 199 229 2,600 -1,200 Descending FlightAware ADS-B
03:33AM 47.5637 -122.3100 180° South 199 229 2,300 -1,200 Descending FlightAware ADS-B
03:33AM 47.5547 -122.3100 180° South 202 232 2,100 -960 Descending FlightAware ADS-B
03:33AM 47.5464 -122.3100 180° South 198 228 2,000 -1,080 Descending FlightAware ADS-B
03:34AM 47.5340 -122.3100 180° South 188 216 1,700 -1,200 Descending FlightAware ADS-B
03:34AM 47.5244 -122.3100 180° South 179 206 1,500 -1,080 Descending FlightAware ADS-B
03:34AM 47.5151 -122.3100 180° South 166 191 1,300 -960 Descending FlightAware ADS-B
03:34AM 47.5091 -122.3100 180° South 159 183 1,200 -660 Descending FlightAware ADS-B
03:34AM 47.5013 -122.3110 185° South 154 177 1,100 -720 Descending FlightAware ADS-B
03:35AM 47.4911 -122.3110 180° South 148 170 900 -780 Descending FlightAware ADS-B
03:35AM 47.4787 -122.3110 180° South 147 169 700 -420 Descending FlightAware ADS-B
03:36AM 47.4540 -122.3110 180° South 147 169 400 -360 Descending FlightAware